METAR Data
IDs: Format: Raw Decoded Include TAF

Data at: 0152 UTC 24 Oct 2019

METAR for:KSUX (Sioux City/Day Fld, IA, US)
Text:KSUX 240052Z 34009KT 10SM SCT016 OVC026 05/03 A3016 RMK AO2 RAB12E46 SLP220 P0000 T00500028
Temperature: 5.0°C ( 41°F)
Dewpoint: 2.8°C ( 37°F) [RH = 86%]
Pressure (altimeter):30.16 inches Hg (1021.4 mb) [Sea level pressure: 1022.0 mb]
Winds:from the NNW (340 degrees) at 10 MPH (9 knots; 4.6 m/s)
Visibility:10 or more sm (16+ km)
Ceiling:2600 feet AGL
Clouds: scattered clouds at 1600 feet AGL, overcast cloud deck at 2600 feet AGL